KMNN/MNN METAR and TAF weather

Enter ICAO airport designator
Station Type Date Time Source
KMNN METAR 2020/12/06 01:53 UTC NOAA

KMNN 060153Z AUTO 32004KT 10SM OVC028 00/M04 A3010 RMK AO2 SLP205 T00001044


Station Type Date Time Source
KMNN Decoded METAR 2020/12/06 01:53 UTC NOAA

MARION MUNICIPAL AIRPORT, OH, United States (KMNN) 40-37N 83-04W 301M
Dec 05, 2020 - 08:53 PM EST / 2020.12.06 0153 UTC
Wind: from the NW (320 degrees) at 5 MPH (4 KT):0
Visibility: 10 mile(s):0
Sky conditions: overcast
Temperature: 32.0 F (0.0 C)
Windchill: 26 F (-3 C):1
Dew Point: 24.1 F (-4.4 C)
Relative Humidity: 72%
Pressure (altimeter): 30.1 in. Hg (1019 hPa)
ob: KMNN 060153Z AUTO 32004KT 10SM OVC028 00/M04 A3010 RMK AO2 SLP205 T00001044
cycle: 2

Station Type Date Time Source
KMNN TAF UTC NOAA

Error!

Example: see airport list